Time;durP1;ratioP1;P1;durP2;ratioP2;P2;SDS_P1;SDS_P2;PMS_P1;PMS_P2;Temp;Humidity;BMP_temperature;BMP_pressure;BME280_temperature;BME280_humidity;BME280_pressure;Samples;Min_cycle;Max_cycle;Signal;HPM_P1;HPM_P2
2022/03/04 00:00:51;;;;;;;54.75;27.80;;;;;;;-1.27;66.06;95136.00;5086566;28;20599;-76
2022/03/04 00:03:16;;;;;;;59.63;28.60;;;;;;;-1.24;66.24;95132.28;5084466;28;20416;-77
2022/03/04 00:05:42;;;;;;;56.63;27.30;;;;;;;-1.19;66.06;95138.06;5083815;28;20406;-76
2022/03/04 00:08:07;;;;;;;49.55;27.58;;;;;;;-1.15;65.62;95129.00;5067215;28;20035;-77
2022/03/04 00:10:33;;;;;;;55.33;27.63;;;;;;;-1.11;65.52;95124.34;5085273;28;20059;-76
2022/03/04 00:12:58;;;;;;;52.25;26.70;;;;;;;-1.13;65.74;95128.91;5085363;28;20089;-76
2022/03/04 00:15:24;;;;;;;55.58;27.20;;;;;;;-1.00;65.08;95131.47;5084798;28;20105;-77
2022/03/04 00:17:49;;;;;;;54.75;26.10;;;;;;;-0.90;64.68;95132.44;5084678;28;20016;-76
2022/03/04 00:20:15;;;;;;;51.40;25.35;;;;;;;-1.03;64.60;95134.31;5066897;28;20066;-77
2022/03/04 00:22:41;;;;;;;47.45;25.58;;;;;;;-1.10;64.73;95122.56;5085660;28;20417;-76
2022/03/04 00:25:06;;;;;;;49.03;25.92;;;;;;;-1.12;65.37;95128.78;5065751;28;21460;-78
2022/03/04 00:27:32;;;;;;;48.17;25.45;;;;;;;-1.09;65.34;95126.84;5082749;28;20031;-77
2022/03/04 00:29:57;;;;;;;51.40;25.75;;;;;;;-1.05;64.97;95130.97;5085018;28;20082;-77
2022/03/04 00:32:23;;;;;;;53.08;25.05;;;;;;;-1.15;65.16;95123.75;5083138;28;20024;-77
2022/03/04 00:34:48;;;;;;;45.47;23.85;;;;;;;-1.17;65.13;95122.16;5082532;28;20032;-77
2022/03/04 00:37:13;;;;;;;44.45;23.00;;;;;;;-1.10;65.25;95123.41;5083547;28;20375;-77
2022/03/04 00:39:39;;;;;;;47.20;24.17;;;;;;;-1.22;65.58;95116.38;5084111;28;20522;-77
2022/03/04 00:42:04;;;;;;;54.90;25.88;;;;;;;-1.18;65.56;95123.97;5083852;28;21209;-77
2022/03/04 00:44:30;;;;;;;61.90;29.63;;;;;;;-1.20;65.64;95119.75;5083812;28;20054;-77
2022/03/04 00:46:55;;;;;;;72.80;33.97;;;;;;;-1.19;65.92;95127.53;5067775;28;20031;-77
2022/03/04 00:49:21;;;;;;;78.35;34.75;;;;;;;-1.22;65.91;95130.41;5081900;28;20028;-77
2022/03/04 00:51:47;;;;;;;82.22;35.00;;;;;;;-1.13;65.56;95116.56;5086246;28;20024;-77
2022/03/04 00:54:12;;;;;;;75.22;35.03;;;;;;;-1.05;65.30;95125.69;5080888;28;20012;-78
2022/03/04 00:56:37;;;;;;;71.63;33.08;;;;;;;-1.13;65.36;95131.53;5084089;28;20036;-76
2022/03/04 00:59:03;;;;;;;62.53;31.15;;;;;;;-1.17;65.34;95120.38;5048881;28;20090;-77
2022/03/04 01:01:28;;;;;;;55.55;29.13;;;;;;;-1.25;65.72;95112.19;5084871;28;20417;-76
2022/03/04 01:03:54;;;;;;;62.60;29.35;;;;;;;-1.32;65.81;95122.31;5081077;28;20389;-76
2022/03/04 01:06:19;;;;;;;62.65;29.67;;;;;;;-1.35;65.75;95114.66;5083216;28;20020;-76
2022/03/04 01:08:45;;;;;;;52.58;27.92;;;;;;;-1.39;65.62;95121.91;5082130;28;20097;-76
2022/03/04 01:11:10;;;;;;;59.85;28.30;;;;;;;-1.34;65.91;95108.47;5064800;28;20552;-77
2022/03/04 01:13:36;;;;;;;58.58;29.38;;;;;;;-1.36;65.97;95115.63;5084014;28;20085;-77
2022/03/04 01:16:01;;;;;;;53.55;27.80;;;;;;;-1.35;66.46;95111.19;5083578;28;20847;-77
2022/03/04 01:18:27;;;;;;;53.58;26.95;;;;;;;-1.37;66.46;95106.06;5083506;28;20042;-77
2022/03/04 01:20:52;;;;;;;63.28;29.98;;;;;;;-1.50;66.78;95095.56;5084780;28;20054;-77
2022/03/04 01:23:18;;;;;;;64.70;31.02;;;;;;;-1.62;67.54;95095.50;5080781;28;20020;-76
2022/03/04 01:25:43;;;;;;;63.55;28.25;;;;;;;-1.60;67.47;95097.19;5066623;28;20124;-76
2022/03/04 01:28:09;;;;;;;61.97;29.40;;;;;;;-1.59;67.45;95093.59;5060593;28;20446;-76
2022/03/04 01:30:34;;;;;;;64.50;31.60;;;;;;;-1.48;66.92;95084.94;5085383;28;20036;-76
2022/03/04 01:32:59;;;;;;;60.97;31.27;;;;;;;-1.38;66.53;95089.41;5077374;28;20028;-76
2022/03/04 01:35:25;;;;;;;71.38;30.27;;;;;;;-1.51;66.73;95088.63;5085098;28;20504;-76
2022/03/04 01:37:51;;;;;;;75.30;31.17;;;;;;;-1.77;67.66;95086.91;5083403;28;20028;-77
2022/03/04 01:40:16;;;;;;;55.35;26.98;;;;;;;-1.79;68.20;95085.34;5081891;28;20046;-75
2022/03/04 01:42:42;;;;;;;53.20;26.55;;;;;;;-1.72;67.35;95083.09;5083877;28;20417;-77
2022/03/04 01:45:08;;;;;;;48.75;25.33;;;;;;;-1.77;67.63;95086.06;5045500;28;20028;-77
2022/03/04 01:47:34;;;;;;;54.15;25.70;;;;;;;-1.71;67.22;95082.19;5063255;28;20474;-76
2022/03/04 01:50:00;;;;;;;47.33;24.15;;;;;;;-1.58;66.49;95069.81;5063912;28;20069;-77
2022/03/04 01:52:25;;;;;;;52.45;26.33;;;;;;;-1.60;66.63;95081.41;5084244;28;20035;-77
2022/03/04 01:54:51;;;;;;;59.50;29.25;;;;;;;-1.55;66.30;95074.88;5080401;28;20408;-77
2022/03/04 01:57:16;;;;;;;67.35;32.50;;;;;;;-1.48;66.33;95080.50;5082198;28;20085;-76
2022/03/04 01:59:41;;;;;;;69.40;33.28;;;;;;;-1.46;65.74;95081.22;5083544;28;20046;-78
2022/03/04 02:02:07;;;;;;;52.85;25.88;;;;;;;-1.54;65.36;95076.53;5080055;28;20039;-77
2022/03/04 02:04:32;;;;;;;47.85;24.63;;;;;;;-1.87;65.61;95083.28;5082112;28;20602;-78
2022/03/04 02:06:58;;;;;;;47.60;23.13;;;;;;;-2.27;66.86;95079.00;5078874;28;20036;-77
2022/03/04 02:09:23;;;;;;;36.35;21.00;;;;;;;-2.11;67.40;95073.53;5085740;28;20035;-77
2022/03/04 02:11:49;;;;;;;37.58;20.98;;;;;;;-2.09;66.99;95076.91;5083033;28;20020;-76
2022/03/04 02:14:14;;;;;;;42.65;23.23;;;;;;;-2.05;66.98;95067.00;5083871;28;20110;-76
2022/03/04 02:16:46;;;;;;;50.55;24.15;;;;;;;-2.02;66.98;95069.41;5080441;28;20479;-77
2022/03/04 02:19:11;;;;;;;51.80;24.52;;;;;;;-2.13;67.00;95072.81;5079528;28;20092;-76
2022/03/04 02:21:37;;;;;;;59.80;28.83;;;;;;;-2.11;67.02;95068.25;5084495;28;20027;-78
2022/03/04 02:24:02;;;;;;;59.55;26.25;;;;;;;-2.08;67.00;95075.94;5050294;28;20398;-76
2022/03/04 02:26:28;;;;;;;49.10;24.65;;;;;;;-2.11;66.73;95069.13;5085263;28;20101;-78
2022/03/04 02:28:53;;;;;;;57.97;26.40;;;;;;;-2.08;66.96;95072.50;5083549;28;20028;-77
2022/03/04 02:31:20;;;;;;;59.33;27.80;;;;;;;-2.12;66.95;95072.69;5086543;28;20024;-77
2022/03/04 02:33:45;;;;;;;53.30;27.30;;;;;;;-2.06;67.06;95067.97;5085565;28;20033;-77
2022/03/04 02:36:11;;;;;;;57.78;27.65;;;;;;;-2.20;67.03;95068.91;5089152;28;20410;-76
2022/03/04 02:38:36;;;;;;;58.35;28.23;;;;;;;-2.26;67.38;95064.94;5071728;28;20020;-76
2022/03/04 02:41:02;;;;;;;61.15;28.48;;;;;;;-2.29;67.55;95063.34;5089603;28;20074;-76
2022/03/04 02:43:28;;;;;;;63.85;28.63;;;;;;;-2.32;68.05;95065.38;5090634;28;20024;-76
2022/03/04 02:45:53;;;;;;;70.82;30.65;;;;;;;-2.26;67.90;95059.69;5088052;28;20081;-76
2022/03/04 02:48:18;;;;;;;63.15;29.75;;;;;;;-2.23;67.58;95062.09;5090581;28;20016;-76
2022/03/04 02:50:44;;;;;;;67.90;33.47;;;;;;;-2.13;67.15;95062.31;5089060;28;20028;-76
2022/03/04 02:53:10;;;;;;;70.65;33.92;;;;;;;-2.15;67.27;95061.56;5089012;28;20020;-78
2022/03/04 02:55:35;;;;;;;70.35;33.53;;;;;;;-2.19;66.77;95060.09;5087992;28;20016;-78
2022/03/04 02:58:00;;;;;;;65.32;30.52;;;;;;;-2.47;67.52;95065.50;5089690;28;20035;-77
2022/03/04 03:00:26;;;;;;;68.65;31.38;;;;;;;-2.53;67.73;95063.28;5087771;28;20066;-76
2022/03/04 03:02:51;;;;;;;60.35;30.23;;;;;;;-2.42;66.84;95066.00;5088844;28;20497;-75
2022/03/04 03:05:17;;;;;;;59.35;31.15;;;;;;;-2.53;67.90;95061.47;5089531;28;20471;-77
2022/03/04 03:07:42;;;;;;;65.15;32.40;;;;;;;-2.48;67.86;95063.78;5087396;28;20101;-77
2022/03/04 03:10:08;;;;;;;61.97;29.65;;;;;;;-2.51;67.11;95071.88;5088698;28;20444;-77
2022/03/04 03:12:34;;;;;;;65.72;29.95;;;;;;;-2.54;67.41;95067.69;5087618;28;20390;-78
2022/03/04 03:14:59;;;;;;;58.20;29.13;;;;;;;-2.49;67.22;95070.84;5089886;28;20023;-77
2022/03/04 03:17:25;;;;;;;61.53;29.33;;;;;;;-2.57;68.40;95069.69;5089562;28;20417;-77
2022/03/04 03:19:50;;;;;;;57.40;27.25;;;;;;;-2.50;68.16;95068.34;5088206;28;20390;-77
2022/03/04 03:22:18;;;;;;;55.75;27.17;;;;;;;-2.47;68.45;95067.25;5089350;28;20031;-78
2022/03/04 03:24:44;;;;;;;61.05;27.48;;;;;;;-2.38;68.17;95067.47;5088581;28;20035;-78
2022/03/04 03:27:09;;;;;;;61.30;29.60;;;;;;;-2.37;67.67;95071.78;5089970;28;20024;-77
2022/03/04 03:29:35;;;;;;;62.38;28.63;;;;;;;-2.34;67.02;95075.16;5088198;28;20024;-76
2022/03/04 03:32:00;;;;;;;56.50;27.17;;;;;;;-2.45;67.09;95073.25;5089904;28;20024;-77
2022/03/04 03:34:26;;;;;;;55.28;27.13;;;;;;;-2.54;66.68;95072.94;5086943;28;20016;-77
2022/03/04 03:36:51;;;;;;;59.58;26.35;;;;;;;-2.58;65.48;95071.50;5089621;28;20024;-78
2022/03/04 03:39:17;;;;;;;58.78;29.88;;;;;;;-2.68;66.55;95080.94;5088642;28;20051;-77
2022/03/04 03:41:42;;;;;;;62.97;28.98;;;;;;;-2.71;67.28;95068.00;5088744;28;20028;-76
2022/03/04 03:44:07;;;;;;;61.25;28.83;;;;;;;-2.68;67.03;95071.28;5089216;28;20023;-76
2022/03/04 03:46:33;;;;;;;57.22;27.60;;;;;;;-2.76;67.29;95074.38;5085397;28;20024;-76
2022/03/04 03:48:58;;;;;;;59.25;29.15;;;;;;;-2.68;67.50;95076.53;5088103;28;20024;-76
2022/03/04 03:51:24;;;;;;;59.35;29.40;;;;;;;-2.69;67.11;95080.06;5086175;28;20024;-77
2022/03/04 03:53:49;;;;;;;62.78;27.75;;;;;;;-2.56;66.67;95080.06;5087852;28;20024;-77
2022/03/04 03:56:15;;;;;;;51.47;27.85;;;;;;;-2.56;66.26;95074.81;5088167;28;20524;-78
2022/03/04 03:58:40;;;;;;;56.45;27.33;;;;;;;-2.67;66.44;95078.19;5088674;28;20023;-78
2022/03/04 04:01:06;;;;;;;58.42;26.92;;;;;;;-2.70;65.77;95080.19;5088508;28;20425;-78
2022/03/04 04:03:31;;;;;;;54.35;26.65;;;;;;;-2.65;65.02;95081.56;5088077;28;20506;-77
2022/03/04 04:05:57;;;;;;;61.55;27.17;;;;;;;-2.68;65.35;95088.81;5088916;28;20040;-77
2022/03/04 04:08:23;;;;;;;57.17;26.70;;;;;;;-2.83;65.46;95086.25;5087449;28;20021;-77
2022/03/04 04:10:49;;;;;;;55.10;26.95;;;;;;;-2.80;65.99;95087.84;5087789;28;20476;-77
2022/03/04 04:13:14;;;;;;;59.60;28.35;;;;;;;-2.78;66.40;95091.19;5088082;28;20035;-77
2022/03/04 04:15:39;;;;;;;54.75;27.45;;;;;;;-2.69;67.05;95095.81;5087271;28;20024;-77
2022/03/04 04:18:05;;;;;;;59.72;27.88;;;;;;;-2.56;66.68;95093.22;5086733;28;20028;-78
2022/03/04 04:20:30;;;;;;;64.80;28.67;;;;;;;-2.61;66.40;95096.16;5086719;28;20051;-78
2022/03/04 04:22:56;;;;;;;56.08;28.33;;;;;;;-2.67;66.76;95095.72;5088204;28;20062;-78
2022/03/04 04:25:21;;;;;;;56.55;26.65;;;;;;;-2.64;66.71;95093.75;5087741;28;20024;-76
2022/03/04 04:27:47;;;;;;;49.67;26.20;;;;;;;-2.64;66.53;95101.63;5087222;28;20028;-79
2022/03/04 04:30:13;;;;;;;60.83;28.48;;;;;;;-2.64;66.15;95106.88;5085527;28;20028;-77
2022/03/04 04:32:38;;;;;;;63.70;30.10;;;;;;;-2.73;66.21;95099.63;5068682;28;20024;-77
2022/03/04 04:35:04;;;;;;;58.75;29.50;;;;;;;-3.04;67.45;95102.50;5062536;28;20040;-78
2022/03/04 04:37:30;;;;;;;58.65;30.02;;;;;;;-3.05;67.75;95106.06;5065454;28;20036;-79
2022/03/04 04:39:55;;;;;;;60.25;29.15;;;;;;;-3.32;67.64;95103.47;5063643;28;20040;-77
2022/03/04 04:42:20;;;;;;;60.38;29.17;;;;;;;-3.41;68.19;95104.91;5077299;28;20141;-78
2022/03/04 04:44:46;;;;;;;56.50;28.83;;;;;;;-3.29;68.58;95100.66;5083814;28;20024;-78
2022/03/04 04:47:12;;;;;;;50.88;26.35;;;;;;;-3.28;68.78;95107.56;5079319;28;20024;-77
2022/03/04 04:49:38;;;;;;;52.05;27.58;;;;;;;-3.33;68.20;95113.13;5068243;28;20024;-79
2022/03/04 04:52:05;;;;;;;52.25;27.60;;;;;;;-3.20;68.18;95112.31;5082290;28;20089;-76
2022/03/04 04:54:30;;;;;;;54.67;26.15;;;;;;;-3.22;68.12;95115.03;5080870;28;20535;-76
2022/03/04 04:56:55;;;;;;;48.90;26.17;;;;;;;-3.18;68.87;95110.44;5045685;28;20036;-79
2022/03/04 04:59:21;;;;;;;55.88;27.95;;;;;;;-3.11;68.67;95111.69;5084694;28;20509;-77
2022/03/04 05:01:46;;;;;;;49.90;26.45;;;;;;;-3.11;68.63;95123.06;5083720;28;20133;-76
2022/03/04 05:04:13;;;;;;;56.42;27.63;;;;;;;-3.17;67.84;95118.22;5083613;28;20052;-78
2022/03/04 05:06:38;;;;;;;46.15;25.30;;;;;;;-3.18;69.29;95124.41;5082727;28;20042;-77
2022/03/04 05:09:04;;;;;;;47.88;24.65;;;;;;;-3.15;68.56;95108.47;5084355;28;20040;-77
2022/03/04 05:11:29;;;;;;;48.88;25.17;;;;;;;-3.24;68.76;95111.69;5084198;28;20027;-78
2022/03/04 05:13:55;;;;;;;49.25;26.02;;;;;;;-3.16;68.92;95114.63;5083974;28;20032;-78
2022/03/04 05:16:21;;;;;;;48.78;26.20;;;;;;;-2.88;70.38;95112.81;5079717;28;20032;-77
2022/03/04 05:18:46;;;;;;;53.63;26.58;;;;;;;-2.67;70.39;95114.94;5084863;28;20113;-79
2022/03/04 05:21:12;;;;;;;48.08;24.65;;;;;;;-2.56;68.04;95116.84;5065251;28;20089;-77
2022/03/04 05:26:21;;;;;;;46.97;24.83;;;;;;;-2.40;66.28;95121.91;5081748;28;20078;-76
2022/03/04 05:28:46;;;;;;;58.22;27.50;;;;;;;-2.42;66.18;95108.03;5083876;28;20028;-78
2022/03/04 05:31:12;;;;;;;80.32;43.20;;;;;;;-2.43;66.27;95111.59;5084184;28;20028;-79
2022/03/04 05:33:37;;;;;;;53.00;29.17;;;;;;;-2.35;65.73;95118.94;5084325;28;20021;-78
2022/03/04 05:36:04;;;;;;;62.22;28.25;;;;;;;-2.37;65.23;95120.88;5060176;28;20032;-78
2022/03/04 05:38:30;;;;;;;59.75;28.10;;;;;;;-2.48;65.25;95129.44;5080763;28;20520;-77
2022/03/04 05:40:55;;;;;;;52.03;27.55;;;;;;;-2.56;65.56;95129.97;5084672;28;20024;-79
2022/03/04 05:43:20;;;;;;;55.15;27.85;;;;;;;-2.37;66.37;95126.94;5081229;28;20047;-78
2022/03/04 05:45:46;;;;;;;56.42;29.23;;;;;;;-2.33;65.70;95121.47;5081104;28;20024;-75
2022/03/04 05:48:11;;;;;;;62.22;29.17;;;;;;;-2.38;65.29;95125.25;5063622;28;20042;-77
2022/03/04 05:50:37;;;;;;;57.55;28.33;;;;;;;-2.39;65.61;95133.25;5081210;28;20031;-78
2022/03/04 05:53:02;;;;;;;61.47;28.83;;;;;;;-2.37;66.15;95131.38;5061168;28;20067;-79
2022/03/04 05:55:28;;;;;;;51.33;29.20;;;;;;;-2.21;65.90;95130.31;5078953;28;20036;-76
2022/03/04 05:57:53;;;;;;;60.78;29.42;;;;;;;-2.18;64.52;95130.09;5083719;28;20062;-76
2022/03/04 06:00:18;;;;;;;61.53;30.13;;;;;;;-1.92;64.30;95133.53;5082622;28;20025;-75
2022/03/04 06:02:44;;;;;;;62.58;29.85;;;;;;;-1.91;64.76;95137.00;5083433;28;20035;-74
2022/03/04 06:05:11;;;;;;;62.53;30.25;;;;;;;-1.76;64.39;95133.28;5078885;28;20442;-73
2022/03/04 06:07:36;;;;;;;55.55;29.67;;;;;;;-1.44;63.65;95125.84;5081356;28;20047;-73
2022/03/04 06:10:03;;;;;;;57.58;29.33;;;;;;;-1.26;63.18;95126.31;5078770;28;20391;-74
2022/03/04 06:12:28;;;;;;;53.78;30.40;;;;;;;-1.13;62.80;95119.19;5080875;28;20036;-74
2022/03/04 06:14:53;;;;;;;54.88;30.27;;;;;;;-0.98;62.73;95118.19;5082959;28;20033;-74
2022/03/04 06:17:19;;;;;;;54.85;30.45;;;;;;;-0.70;62.02;95121.38;5080654;28;20031;-74
2022/03/04 06:19:44;;;;;;;53.50;27.23;;;;;;;-0.45;60.83;95120.38;5084806;28;20032;-74
2022/03/04 06:22:10;;;;;;;44.10;24.30;;;;;;;-0.14;60.35;95123.28;5083090;28;20028;-75
2022/03/04 06:24:36;;;;;;;31.63;18.60;;;;;;;0.05;58.46;95126.31;5085145;28;20031;-75
2022/03/04 06:27:01;;;;;;;33.75;17.67;;;;;;;-0.02;58.34;95125.94;5085074;28;20089;-75
2022/03/04 06:29:27;;;;;;;35.22;18.60;;;;;;;-0.16;57.93;95122.56;5086254;28;20461;-74
2022/03/04 06:31:52;;;;;;;35.55;19.88;;;;;;;-0.18;58.05;95127.09;5085246;28;20047;-74
2022/03/04 06:34:18;;;;;;;41.10;19.70;;;;;;;-0.34;59.48;95127.47;5084534;28;20035;-75
2022/03/04 06:36:43;;;;;;;39.25;20.88;;;;;;;-0.38;60.31;95126.88;5084262;28;20126;-75
2022/03/04 06:39:08;;;;;;;36.72;20.67;;;;;;;-0.34;60.48;95137.16;5085027;28;20036;-75
2022/03/04 06:41:34;;;;;;;35.47;21.42;;;;;;;-0.38;60.93;95132.13;5086063;28;20024;-75
2022/03/04 06:43:59;;;;;;;38.13;19.85;;;;;;;-0.41;61.28;95135.00;5085232;28;20028;-75
2022/03/04 06:46:25;;;;;;;35.47;19.65;;;;;;;-0.44;60.82;95137.03;5086455;28;20027;-75
2022/03/04 06:48:50;;;;;;;37.22;20.63;;;;;;;-0.39;60.99;95142.78;5084981;28;20085;-75
2022/03/04 06:51:16;;;;;;;61.67;32.03;;;;;;;-0.33;60.41;95144.09;5067996;28;20154;-75
2022/03/04 06:53:41;;;;;;;42.08;21.63;;;;;;;-0.29;60.50;95141.13;5085274;28;20024;-75
2022/03/04 06:56:07;;;;;;;41.92;21.42;;;;;;;-0.22;59.75;95138.00;5085629;28;20024;-75
2022/03/04 06:58:32;;;;;;;40.15;20.48;;;;;;;-0.20;59.75;95139.59;5084323;28;20474;-76
2022/03/04 07:00:58;;;;;;;44.67;22.27;;;;;;;-0.20;60.08;95139.59;5085488;28;20035;-74
2022/03/04 07:03:23;;;;;;;40.28;21.88;;;;;;;-0.21;60.14;95143.16;5067815;28;20020;-74
2022/03/04 07:05:49;;;;;;;41.45;23.10;;;;;;;-0.14;60.66;95144.38;5084711;28;20047;-74
2022/03/04 07:08:14;;;;;;;44.45;23.90;;;;;;;0.00;60.08;95145.13;5068104;28;20085;-75
2022/03/04 07:10:42;;;;;;;40.17;21.75;;;;;;;0.11;60.02;95150.38;5084862;28;20012;-75
2022/03/04 07:13:08;;;;;;;40.15;22.58;;;;;;;0.18;59.80;95147.31;5084460;28;20089;-74
2022/03/04 07:15:34;;;;;;;37.97;21.98;;;;;;;0.30;59.40;95141.06;5084188;28;20021;-75
2022/03/04 07:17:59;;;;;;;34.97;20.13;;;;;;;0.70;58.00;95152.88;5084368;28;20016;-74
2022/03/04 07:20:25;;;;;;;40.92;20.60;;;;;;;0.80;57.61;95147.69;5086689;28;20041;-75
2022/03/04 07:22:50;;;;;;;39.03;20.80;;;;;;;0.96;56.69;95149.94;5088612;28;20031;-75
2022/03/04 07:25:16;;;;;;;37.47;22.38;;;;;;;1.04;56.64;95146.66;5089459;28;20077;-74
2022/03/04 07:27:41;;;;;;;36.92;21.10;;;;;;;1.09;57.20;95151.56;5087121;28;20081;-74
2022/03/04 07:30:09;;;;;;;41.00;21.45;;;;;;;1.28;56.72;95147.41;5071511;28;20425;-75
2022/03/04 07:32:34;;;;;;;35.58;19.77;;;;;;;1.34;56.53;95144.25;5070255;28;20040;-75
2022/03/04 07:35:00;;;;;;;38.17;22.02;;;;;;;1.42;56.24;95151.59;5071135;28;20119;-74
2022/03/04 07:37:26;;;;;;;36.75;20.65;;;;;;;1.43;56.10;95150.59;5088509;28;20035;-75
2022/03/04 07:39:51;;;;;;;38.95;21.48;;;;;;;1.37;56.46;95151.94;5088536;28;20453;-75
2022/03/04 07:42:17;;;;;;;35.78;21.15;;;;;;;1.35;56.37;95152.06;5087762;28;20033;-75
2022/03/04 07:44:42;;;;;;;35.85;21.85;;;;;;;1.34;56.48;95155.69;5088077;28;20024;-75
2022/03/04 07:47:08;;;;;;;34.65;21.60;;;;;;;1.38;55.87;95155.41;5089447;28;20106;-74
2022/03/04 07:49:33;;;;;;;40.70;22.23;;;;;;;1.44;56.17;95144.34;5069517;28;20032;-74
2022/03/04 07:51:59;;;;;;;44.97;23.17;;;;;;;1.50;55.54;95140.38;5089060;28;20085;-74
2022/03/04 07:54:24;;;;;;;40.58;21.38;;;;;;;1.47;55.88;95144.94;5086736;28;20039;-74
2022/03/04 07:56:52;;;;;;;35.33;21.77;;;;;;;1.58;55.70;95136.09;5088395;28;20457;-74
2022/03/04 07:59:18;;;;;;;42.30;24.10;;;;;;;1.52;55.56;95152.47;5087195;28;20020;-74
2022/03/04 08:01:43;;;;;;;41.00;23.33;;;;;;;1.56;55.79;95148.63;5087702;28;20425;-74
2022/03/04 08:04:11;;;;;;;43.40;24.08;;;;;;;1.65;55.65;95151.44;5089161;28;20466;-73
2022/03/04 08:06:38;;;;;;;43.15;24.35;;;;;;;1.72;55.31;95148.19;5087173;28;20318;-73
2022/03/04 08:09:03;;;;;;;40.08;23.45;;;;;;;1.82;55.54;95150.03;5087653;28;20036;-74
2022/03/04 08:11:29;;;;;;;43.55;24.23;;;;;;;1.88;54.81;95152.16;5086332;28;20410;-74
2022/03/04 08:13:54;;;;;;;42.97;23.27;;;;;;;1.82;55.49;95148.22;5088352;28;20031;-73
2022/03/04 08:16:19;;;;;;;40.05;23.10;;;;;;;1.82;55.14;95150.84;5088201;28;20031;-74
2022/03/04 08:18:45;;;;;;;39.50;22.80;;;;;;;1.91;55.26;95154.53;5087754;28;20039;-74
2022/03/04 08:21:11;;;;;;;45.33;22.52;;;;;;;1.88;55.43;95152.16;5088369;28;20454;-75
2022/03/04 08:23:37;;;;;;;35.30;22.00;;;;;;;2.10;55.13;95152.97;5087672;28;20027;-74
2022/03/04 08:26:03;;;;;;;47.17;24.05;;;;;;;2.25;55.42;95155.25;5087245;28;20036;-74
2022/03/04 08:28:31;;;;;;;45.60;22.92;;;;;;;2.53;55.09;95153.69;5085833;28;20024;-74
2022/03/04 08:30:56;;;;;;;36.95;22.65;;;;;;;2.71;53.73;95153.06;5086962;28;20030;-75
2022/03/04 08:33:23;;;;;;;44.38;25.02;;;;;;;2.80;53.94;95156.72;5087071;28;20024;-74
2022/03/04 08:35:49;;;;;;;37.00;21.38;;;;;;;2.79;52.85;95153.22;5086184;28;20440;-76
2022/03/04 08:38:14;;;;;;;36.50;21.23;;;;;;;2.91;52.03;95153.13;5087840;28;20070;-75
2022/03/04 08:40:40;;;;;;;35.42;20.33;;;;;;;2.91;51.93;95161.91;5086594;28;20433;-74
2022/03/04 08:43:05;;;;;;;38.42;21.58;;;;;;;3.10;52.06;95152.31;5086898;28;20578;-77
2022/03/04 08:45:30;;;;;;;34.47;21.33;;;;;;;3.37;50.79;95147.31;5085476;28;20024;-76
2022/03/04 08:47:56;;;;;;;40.53;22.60;;;;;;;3.58;50.47;95155.97;5087847;28;20020;-74
2022/03/04 08:50:21;;;;;;;43.10;23.33;;;;;;;3.72;50.29;95148.56;5086914;28;20024;-74
2022/03/04 08:52:48;;;;;;;37.15;23.08;;;;;;;3.80;50.03;95154.00;5087518;28;20486;-75
2022/03/04 08:55:16;;;;;;;39.92;23.33;;;;;;;4.13;49.48;95158.94;5086046;28;20512;-74
2022/03/04 08:57:49;;;;;;;39.78;23.20;;;;;;;4.31;48.84;95156.38;5087201;28;20482;-74
2022/03/04 09:00:15;;;;;;;38.20;22.73;;;;;;;4.47;49.32;95149.59;5087938;28;20020;-75
2022/03/04 09:02:41;;;;;;;42.78;23.08;;;;;;;4.53;49.84;95146.38;5086588;28;20032;-75
2022/03/04 09:05:07;;;;;;;45.00;22.25;;;;;;;4.61;50.28;95142.16;5087773;28;20051;-74
2022/03/04 09:07:32;;;;;;;35.05;21.77;;;;;;;4.69;49.30;95139.59;5085357;28;20016;-75
2022/03/04 09:09:58;;;;;;;37.03;22.65;;;;;;;4.70;48.04;95130.63;5087113;28;20032;-74
2022/03/04 09:12:24;;;;;;;37.80;22.33;;;;;;;4.79;47.83;95136.88;5086774;28;20085;-74
2022/03/04 09:14:49;;;;;;;40.97;23.45;;;;;;;4.72;47.63;95138.47;5086914;28;20020;-75
2022/03/04 09:17:15;;;;;;;38.80;23.05;;;;;;;4.84;48.15;95144.44;5087289;28;20493;-75
2022/03/04 09:19:40;;;;;;;40.75;23.10;;;;;;;4.94;47.57;95150.50;5086138;28;20530;-75
2022/03/04 09:22:06;;;;;;;38.38;21.48;;;;;;;5.09;46.33;95139.38;5087531;28;20623;-74
2022/03/04 09:24:31;;;;;;;35.05;20.95;;;;;;;5.25;45.68;95142.19;5086208;28;20038;-74
2022/03/04 09:26:57;;;;;;;38.70;22.65;;;;;;;5.30;47.17;95141.75;5086916;28;20111;-75
2022/03/04 09:29:22;;;;;;;37.15;21.95;;;;;;;5.36;45.85;95141.13;5084998;28;20058;-74
2022/03/04 09:31:48;;;;;;;34.22;21.58;;;;;;;5.53;45.73;95141.28;5086888;28;20030;-76
2022/03/04 09:34:13;;;;;;;39.38;22.17;;;;;;;5.62;45.13;95142.19;5085447;28;20735;-75
2022/03/04 09:36:39;;;;;;;33.92;22.23;;;;;;;5.73;44.80;95141.09;5086659;28;20498;-76
2022/03/04 09:39:05;;;;;;;29.35;17.92;;;;;;;5.76;43.94;95138.13;5085489;28;20486;-74
2022/03/04 09:41:30;;;;;;;32.38;18.20;;;;;;;5.69;43.84;95135.28;5084362;28;20142;-75
2022/03/04 09:43:56;;;;;;;31.88;18.63;;;;;;;5.74;43.61;95135.63;5084881;28;20103;-76
2022/03/04 09:46:22;;;;;;;32.10;19.20;;;;;;;5.67;44.26;95137.25;5084789;28;20024;-75
2022/03/04 09:48:49;;;;;;;32.17;20.20;;;;;;;5.69;44.06;95129.94;5085660;28;20430;-75
2022/03/04 09:51:14;;;;;;;26.85;17.15;;;;;;;5.78;43.71;95133.50;5084948;28;20024;-75
2022/03/04 09:53:40;;;;;;;28.38;17.77;;;;;;;5.92;43.86;95140.09;5084575;28;20032;-75
2022/03/04 09:56:05;;;;;;;29.40;18.50;;;;;;;5.85;43.91;95133.72;5086291;28;20087;-75
2022/03/04 09:58:31;;;;;;;28.83;18.05;;;;;;;5.89;43.34;95135.91;5085788;28;20063;-74
2022/03/04 10:00:56;;;;;;;29.02;17.50;;;;;;;5.99;43.69;95125.19;5086808;28;20099;-75
2022/03/04 10:03:31;;;;;;;31.27;18.00;;;;;;;6.11;44.09;95123.09;5085597;28;20036;-78
2022/03/04 10:05:59;;;;;;;28.77;18.02;;;;;;;6.08;43.81;95119.94;5086268;28;20114;-74
2022/03/04 10:08:25;;;;;;;28.35;16.85;;;;;;;6.23;43.94;95117.50;5085907;28;20032;-75
2022/03/04 10:10:52;;;;;;;25.45;14.93;;;;;;;6.27;43.58;95114.38;5084660;28;20456;-73
2022/03/04 10:13:18;;;;;;;20.98;13.23;;;;;;;6.35;42.73;95110.09;5086079;28;20016;-74
2022/03/04 10:15:54;;;;;;;17.50;11.65;;;;;;;6.50;43.40;95099.66;5067559;28;20510;-74
2022/03/04 10:18:26;;;;;;;22.27;12.80;;;;;;;6.67;42.73;95104.06;5085171;28;20402;-75
2022/03/04 10:20:52;;;;;;;20.25;12.27;;;;;;;6.71;41.54;95103.75;5066922;28;20467;-74
2022/03/04 10:23:19;;;;;;;16.50;10.55;;;;;;;6.78;41.59;95102.13;5085871;28;20039;-75
2022/03/04 10:25:46;;;;;;;15.50;10.57;;;;;;;6.79;40.94;95091.28;5084335;28;20043;-75
2022/03/04 10:28:12;;;;;;;17.50;9.52;;;;;;;6.77;40.44;95089.81;5084380;28;20020;-75
2022/03/04 10:30:45;;;;;;;18.30;9.90;;;;;;;6.73;40.84;95094.59;5084760;28;20108;-75
2022/03/04 10:33:12;;;;;;;16.90;11.00;;;;;;;6.72;40.95;95086.78;5067668;28;20028;-75
2022/03/04 10:35:38;;;;;;;17.10;11.32;;;;;;;6.73;41.89;95080.44;5085327;28;20042;-74
2022/03/04 10:38:04;;;;;;;16.42;10.02;;;;;;;6.68;40.35;95078.25;5084834;28;20024;-75
2022/03/04 10:40:42;;;;;;;19.33;9.80;;;;;;;6.73;41.22;95067.97;5086180;28;20030;-75
2022/03/04 10:43:09;;;;;;;16.70;9.23;;;;;;;6.66;40.69;95074.91;5068307;28;20085;-74
2022/03/04 10:45:40;;;;;;;14.27;9.68;;;;;;;6.62;41.82;95069.09;5084580;28;20031;-75
2022/03/04 10:48:10;;;;;;;13.98;9.57;;;;;;;6.73;41.00;95067.13;5086053;28;20032;-75
2022/03/04 10:50:36;;;;;;;16.15;8.90;;;;;;;6.79;41.30;95061.97;5067491;28;20509;-74
2022/03/04 10:53:09;;;;;;;13.63;9.38;;;;;;;6.86;40.85;95059.50;5085429;28;20154;-76
2022/03/04 10:55:49;;;;;;;17.40;8.95;;;;;;;6.91;40.16;95057.19;5086583;28;20027;-75
2022/03/04 10:58:18;;;;;;;14.95;9.57;;;;;;;6.90;39.81;95047.50;5089658;28;20040;-75
2022/03/04 11:00:45;;;;;;;13.55;8.93;;;;;;;6.98;40.69;95049.34;5088177;28;20500;-75
2022/03/04 11:03:30;;;;;;;15.68;9.45;;;;;;;7.10;40.52;95041.88;5071058;28;20051;-74
2022/03/04 11:05:57;;;;;;;17.08;8.60;;;;;;;7.11;40.25;95045.38;5089985;28;20044;-75
2022/03/04 11:08:23;;;;;;;12.15;7.13;;;;;;;7.13;38.85;95041.53;5088437;28;20036;-74
2022/03/04 11:10:52;;;;;;;12.73;7.78;;;;;;;7.17;39.84;95034.84;5089717;28;20313;-74
2022/03/04 11:13:17;;;;;;;9.63;7.22;;;;;;;7.20;39.10;95039.03;5087501;28;20121;-74
2022/03/04 11:15:44;;;;;;;9.80;6.78;;;;;;;7.25;38.03;95033.22;5089205;28;20516;-74
2022/03/04 11:18:11;;;;;;;11.50;7.45;;;;;;;7.23;38.78;95028.03;5070800;28;20028;-74